createdAt,value
2023-08-21T00:01:52.171Z,26.30
2023-08-21T00:04:21.743Z,26.34
2023-08-21T00:06:51.036Z,26.42
2023-08-21T00:09:21.230Z,26.36
2023-08-21T00:11:51.849Z,26.15
2023-08-21T00:14:32.990Z,26.11
2023-08-21T00:17:05.886Z,26.14
2023-08-21T00:19:44.244Z,25.91
2023-08-21T00:22:21.114Z,25.89
2023-08-21T00:24:55.932Z,26.06
2023-08-21T00:27:24.598Z,25.83
2023-08-21T00:29:55.349Z,25.97
2023-08-21T00:32:26.577Z,25.99
2023-08-21T00:34:57.563Z,25.93
2023-08-21T00:37:27.317Z,26.09
2023-08-21T00:39:58.303Z,26.15
2023-08-21T00:42:28.435Z,26.21
2023-08-21T00:45:13.083Z,26.12
2023-08-21T00:47:42.358Z,25.99
2023-08-21T00:50:27.806Z,26.04
2023-08-21T00:52:57.290Z,26.18
2023-08-21T00:55:27.138Z,25.93
2023-08-21T00:58:04.463Z,26.02
2023-08-21T01:00:40.850Z,26.03
2023-08-21T01:03:19.260Z,26.04
2023-08-21T01:05:57.118Z,25.85
2023-08-21T01:08:35.317Z,25.83
2023-08-21T01:11:11.565Z,25.92
2023-08-21T01:13:55.581Z,26.10
2023-08-21T01:16:36.649Z,25.81
2023-08-21T01:19:08.427Z,25.70
2023-08-21T01:21:36.739Z,25.77
2023-08-21T01:24:11.469Z,25.79
2023-08-21T01:26:45.308Z,25.72
2023-08-21T01:29:16.252Z,25.49
2023-08-21T01:31:54.503Z,25.59
2023-08-21T01:34:26.112Z,25.61
2023-08-21T01:37:02.512Z,25.63
2023-08-21T01:39:48.441Z,25.61
2023-08-21T01:42:19.929Z,25.44
2023-08-21T01:44:51.749Z,25.48
2023-08-21T01:47:22.313Z,25.43
2023-08-21T01:49:55.427Z,25.54
2023-08-21T01:52:24.003Z,25.39
2023-08-21T01:54:56.361Z,25.54
2023-08-21T01:57:25.796Z,25.55
2023-08-21T02:00:04.504Z,25.45
2023-08-21T02:02:54.960Z,25.52
2023-08-21T02:05:23.106Z,25.43
2023-08-21T02:07:51.940Z,25.50
2023-08-21T02:10:27.528Z,25.50
2023-08-21T02:12:56.131Z,25.46
2023-08-21T02:15:34.253Z,25.35
2023-08-21T02:18:05.216Z,25.34
2023-08-21T02:20:35.014Z,25.23
2023-08-21T02:23:03.749Z,25.33
2023-08-21T02:25:34.883Z,25.39
2023-08-21T02:28:05.398Z,25.26
2023-08-21T02:30:37.846Z,25.20
2023-08-21T02:33:09.891Z,25.29
2023-08-21T02:35:44.249Z,25.37
2023-08-21T02:38:13.074Z,25.24
2023-08-21T02:40:54.780Z,25.23
2023-08-21T02:43:26.414Z,25.06
2023-08-21T02:46:00.551Z,25.10
2023-08-21T02:48:31.253Z,25.08
2023-08-21T02:51:00.692Z,25.04
2023-08-21T02:53:31.116Z,25.26
2023-08-21T02:56:01.199Z,24.86
2023-08-21T02:58:32.165Z,24.96
2023-08-21T03:01:03.914Z,25.07
2023-08-21T03:03:37.946Z,24.91
2023-08-21T03:06:07.968Z,24.90
2023-08-21T03:08:45.173Z,24.74
2023-08-21T03:11:17.691Z,24.64
2023-08-21T03:13:47.046Z,24.70
2023-08-21T03:16:18.103Z,24.66
2023-08-21T03:19:08.130Z,24.74
2023-08-21T03:21:36.871Z,24.63
2023-08-21T03:24:10.569Z,24.66
2023-08-21T03:26:41.476Z,24.73
2023-08-21T03:29:12.972Z,24.54
2023-08-21T03:31:42.204Z,24.46
2023-08-21T03:34:12.176Z,24.41
2023-08-21T03:36:42.666Z,24.60
2023-08-21T03:39:12.565Z,24.41
2023-08-21T03:41:50.701Z,24.48
2023-08-21T03:44:31.453Z,24.66
2023-08-21T03:47:02.516Z,24.56
2023-08-21T03:49:43.544Z,24.81
2023-08-21T03:52:14.535Z,24.69
2023-08-21T03:54:46.807Z,24.63
2023-08-21T03:57:27.317Z,24.85
2023-08-21T03:59:55.362Z,24.70
2023-08-21T04:02:26.829Z,24.70
2023-08-21T04:05:05.065Z,24.78
2023-08-21T04:07:46.050Z,24.85
2023-08-21T04:10:14.935Z,24.56
2023-08-21T04:12:52.089Z,24.90
2023-08-21T04:15:28.392Z,24.85
2023-08-21T04:17:59.844Z,24.77
2023-08-21T04:20:32.803Z,24.81
2023-08-21T04:23:00.896Z,24.83
2023-08-21T04:25:37.771Z,24.92
2023-08-21T04:28:08.713Z,24.81
2023-08-21T04:30:38.268Z,24.98
2023-08-21T04:33:07.576Z,25.18
2023-08-21T04:35:42.533Z,24.88
2023-08-21T04:38:19.024Z,24.99
2023-08-21T04:40:56.490Z,25.18
2023-08-21T04:43:31.168Z,24.88
2023-08-21T04:46:08.663Z,25.05
2023-08-21T04:48:44.407Z,24.99
2023-08-21T04:51:23.371Z,24.81
2023-08-21T04:54:08.109Z,24.83
2023-08-21T04:56:49.058Z,24.85
2023-08-21T04:59:19.810Z,24.88
2023-08-21T05:01:49.160Z,24.70
2023-08-21T05:04:18.628Z,25.00
2023-08-21T05:06:50.021Z,24.79
2023-08-21T05:09:26.520Z,24.88
2023-08-21T05:11:57.400Z,24.88
2023-08-21T05:14:33.092Z,24.99
2023-08-21T05:17:15.523Z,24.72
2023-08-21T05:19:45.964Z,25.01
2023-08-21T05:22:17.400Z,24.99
2023-08-21T05:24:46.004Z,25.13
2023-08-21T05:27:23.125Z,25.23
2023-08-21T05:30:00.928Z,25.39
2023-08-21T05:32:41.489Z,25.24
2023-08-21T05:35:12.463Z,25.24
2023-08-21T05:37:49.165Z,25.43
2023-08-21T05:40:26.857Z,25.57
2023-08-21T05:43:04.591Z,25.70
2023-08-21T05:45:35.395Z,25.68
2023-08-21T05:48:06.033Z,25.80
2023-08-21T05:50:51.352Z,25.83
2023-08-21T05:53:22.797Z,25.85
2023-08-21T05:56:03.068Z,25.77
2023-08-21T05:58:34.992Z,25.78
2023-08-21T06:01:13.252Z,25.92
2023-08-21T06:03:48.932Z,26.06
2023-08-21T06:06:48.878Z,25.83
2023-08-21T06:09:22.760Z,25.68
2023-08-21T06:11:53.462Z,25.71
2023-08-21T06:14:39.736Z,25.79
2023-08-21T06:17:24.173Z,25.70
2023-08-21T06:19:57.496Z,25.86
2023-08-21T06:22:34.103Z,25.97
2023-08-21T06:25:05.260Z,25.79
2023-08-21T06:27:44.418Z,25.92
2023-08-21T06:30:29.704Z,25.92
2023-08-21T06:33:00.693Z,25.94
2023-08-21T06:35:32.849Z,25.94
2023-08-21T06:38:02.257Z,26.05
2023-08-21T06:40:33.203Z,25.99
2023-08-21T06:43:11.501Z,26.09
2023-08-21T06:45:45.201Z,26.08
2023-08-21T06:48:29.439Z,26.17
2023-08-21T06:51:00.482Z,25.94
2023-08-21T06:53:29.841Z,25.96
2023-08-21T06:56:00.321Z,25.87
2023-08-21T06:58:32.440Z,25.65
2023-08-21T07:01:09.887Z,25.68
2023-08-21T07:03:42.090Z,25.62
2023-08-21T07:06:11.264Z,25.88
2023-08-21T07:08:41.794Z,26.15
2023-08-21T07:11:14.599Z,26.13
2023-08-21T07:13:56.828Z,26.22
2023-08-21T07:16:27.473Z,26.24
2023-08-21T07:19:00.307Z,26.29
2023-08-21T07:21:34.763Z,26.38
2023-08-21T07:24:05.171Z,26.54
2023-08-21T07:26:34.735Z,26.72
2023-08-21T07:29:05.600Z,26.82
2023-08-21T07:31:37.349Z,26.94
2023-08-21T07:34:17.734Z,27.01
2023-08-21T07:36:49.459Z,27.21
2023-08-21T07:39:17.514Z,27.33
2023-08-21T07:41:49.017Z,27.50
2023-08-21T07:44:20.650Z,27.57
2023-08-21T07:46:52.692Z,27.57
2023-08-21T07:49:27.831Z,27.70
2023-08-21T07:51:58.411Z,27.79
2023-08-21T07:54:29.890Z,27.77
2023-08-21T07:56:57.953Z,27.87
2023-08-21T07:59:30.659Z,27.96
2023-08-21T08:01:59.526Z,28.01
2023-08-21T08:04:43.614Z,28.02
2023-08-21T08:07:14.900Z,28.17
2023-08-21T08:09:48.297Z,28.27
2023-08-21T08:12:22.386Z,28.38
2023-08-21T08:14:54.008Z,28.48
2023-08-21T08:17:24.479Z,28.58
2023-08-21T08:19:56.127Z,28.74
2023-08-21T08:22:27.365Z,28.78
2023-08-21T08:24:59.417Z,28.91
2023-08-21T08:27:30.241Z,29.05
2023-08-21T08:30:01.041Z,28.86
2023-08-21T08:32:30.552Z,28.83
2023-08-21T08:35:01.169Z,28.93
2023-08-21T08:37:32.067Z,28.98
2023-08-21T08:40:01.321Z,29.08
2023-08-21T08:42:30.261Z,29.21
2023-08-21T08:45:38.385Z,29.29
2023-08-21T08:48:17.643Z,29.41
2023-08-21T08:50:59.330Z,29.50
2023-08-21T08:53:30.030Z,29.55
2023-08-21T08:55:59.884Z,29.57
2023-08-21T08:58:29.247Z,29.67
2023-08-21T09:01:05.585Z,29.77
2023-08-21T09:03:35.107Z,29.81
2023-08-21T09:06:08.781Z,29.89
2023-08-21T09:08:42.706Z,29.92
2023-08-21T09:11:11.347Z,30.07
2023-08-21T09:13:46.437Z,30.15
2023-08-21T09:16:28.285Z,30.26
2023-08-21T09:19:01.160Z,30.37
2023-08-21T09:21:31.200Z,30.59
2023-08-21T09:24:03.884Z,30.64
2023-08-21T09:26:35.689Z,30.74
2023-08-21T09:29:14.012Z,30.79
2023-08-21T09:31:44.719Z,30.83
2023-08-21T09:34:15.628Z,30.92
2023-08-21T09:36:56.741Z,30.96
2023-08-21T09:39:27.833Z,30.92
2023-08-21T09:42:03.893Z,31.02
2023-08-21T09:44:53.033Z,31.06
2023-08-21T09:47:29.477Z,31.22
2023-08-21T09:50:01.836Z,31.46
2023-08-21T09:52:46.622Z,31.42
2023-08-21T09:55:16.050Z,31.61
2023-08-21T09:57:49.928Z,31.71
2023-08-21T10:00:31.937Z,31.77
2023-08-21T10:03:04.330Z,31.84
2023-08-21T10:05:36.438Z,31.89
2023-08-21T10:08:12.544Z,31.99
2023-08-21T10:10:44.025Z,32.02
2023-08-21T10:13:15.269Z,32.12
2023-08-21T10:15:53.038Z,32.22
2023-08-21T10:18:25.690Z,32.29
2023-08-21T10:21:06.433Z,32.30
2023-08-21T10:23:45.867Z,32.33
2023-08-21T10:26:14.706Z,32.36
2023-08-21T10:28:48.663Z,32.52
2023-08-21T10:31:44.644Z,32.58
2023-08-21T10:34:17.581Z,32.63
2023-08-21T10:37:25.266Z,32.82
2023-08-21T10:40:02.066Z,32.86
2023-08-21T10:42:43.474Z,32.92
2023-08-21T10:45:13.804Z,33.06
2023-08-21T10:47:48.346Z,33.08
2023-08-21T10:50:23.824Z,33.19
2023-08-21T10:52:55.009Z,33.10
2023-08-21T10:55:34.808Z,33.14
2023-08-21T10:58:04.719Z,33.17
2023-08-21T11:00:36.499Z,33.21
2023-08-21T11:03:11.908Z,33.15
2023-08-21T11:05:42.656Z,33.30
2023-08-21T11:08:14.104Z,33.55
2023-08-21T11:10:51.749Z,33.65
2023-08-21T11:13:21.139Z,33.84
2023-08-21T11:15:49.865Z,33.92
2023-08-21T11:18:21.112Z,34.04
2023-08-21T11:20:53.205Z,34.07
2023-08-21T11:23:23.720Z,34.06
2023-08-21T11:26:19.273Z,34.09
2023-08-21T11:28:55.504Z,34.31
2023-08-21T11:31:32.557Z,34.31
2023-08-21T11:34:22.153Z,34.39
2023-08-21T11:36:52.866Z,34.48
2023-08-21T11:39:23.213Z,34.54
2023-08-21T11:42:05.378Z,34.61
2023-08-21T11:44:34.884Z,34.68
2023-08-21T11:47:05.832Z,34.84
2023-08-21T11:49:43.838Z,34.99
2023-08-21T11:52:23.858Z,35.03
2023-08-21T11:54:58.162Z,34.99
2023-08-21T11:57:31.312Z,35.12
2023-08-21T12:00:03.423Z,35.17
2023-08-21T12:02:37.391Z,35.22
2023-08-21T12:05:15.346Z,35.35
2023-08-21T12:07:44.769Z,35.35
2023-08-21T12:10:16.398Z,35.57
2023-08-21T12:12:49.021Z,35.65
2023-08-21T12:15:25.636Z,35.79
2023-08-21T12:17:54.696Z,35.94
2023-08-21T12:20:25.598Z,35.97
2023-08-21T12:22:55.699Z,36.17
2023-08-21T12:25:25.251Z,36.28
2023-08-21T12:28:09.697Z,36.16
2023-08-21T12:30:43.017Z,36.41
2023-08-21T12:33:23.956Z,36.45
2023-08-21T12:35:56.937Z,36.62
2023-08-21T12:38:30.417Z,36.84
2023-08-21T12:41:01.651Z,36.98
2023-08-21T12:43:34.473Z,36.99
2023-08-21T12:46:05.735Z,36.98
2023-08-21T12:48:36.954Z,37.02
2023-08-21T12:51:06.362Z,36.91
2023-08-21T12:53:35.004Z,36.97
2023-08-21T12:56:06.056Z,37.10
2023-08-21T12:58:37.288Z,37.28
2023-08-21T13:01:08.049Z,37.41
2023-08-21T13:03:49.422Z,37.58
2023-08-21T13:06:19.619Z,37.58
2023-08-21T13:08:51.510Z,37.65
2023-08-21T13:11:22.541Z,37.68
2023-08-21T13:14:01.551Z,37.75
2023-08-21T13:16:33.719Z,37.76
2023-08-21T13:19:02.976Z,37.86
2023-08-21T13:21:34.715Z,38.13
2023-08-21T13:24:04.038Z,38.20
2023-08-21T13:26:33.742Z,38.29
2023-08-21T13:29:04.449Z,38.34
2023-08-21T13:31:36.514Z,38.25
2023-08-21T13:34:06.982Z,38.08
2023-08-21T13:36:45.574Z,38.22
2023-08-21T13:39:16.647Z,38.32
2023-08-21T13:41:50.552Z,38.08
2023-08-21T13:44:34.134Z,38.27
2023-08-21T13:47:05.559Z,38.51
2023-08-21T13:49:37.136Z,38.76
2023-08-21T13:52:08.612Z,38.64
2023-08-21T13:54:36.827Z,38.66
2023-08-21T13:57:11.882Z,38.90
2023-08-21T13:59:49.025Z,38.75
2023-08-21T14:02:26.464Z,38.80
2023-08-21T14:04:56.990Z,39.05
2023-08-21T14:07:28.248Z,38.94
2023-08-21T14:10:03.465Z,39.04
2023-08-21T14:12:34.352Z,39.05
2023-08-21T14:15:23.409Z,39.10
2023-08-21T14:18:05.712Z,39.28
2023-08-21T14:20:35.608Z,39.30
2023-08-21T14:23:07.199Z,39.34
2023-08-21T14:25:38.376Z,39.25
2023-08-21T14:28:07.378Z,39.06
2023-08-21T14:30:44.411Z,38.84
2023-08-21T14:33:18.346Z,38.90
2023-08-21T14:35:50.223Z,38.58
2023-08-21T14:38:21.404Z,38.33
2023-08-21T14:40:51.745Z,38.20
2023-08-21T14:43:22.119Z,38.09
2023-08-21T14:45:53.478Z,38.01
2023-08-21T14:48:24.785Z,37.83
2023-08-21T14:50:57.111Z,37.64
2023-08-21T14:53:37.396Z,37.57
2023-08-21T14:56:06.925Z,37.36
2023-08-21T14:58:35.904Z,37.47
2023-08-21T15:01:10.328Z,37.48
2023-08-21T15:03:39.597Z,37.39
2023-08-21T15:06:17.534Z,37.21
2023-08-21T15:08:48.095Z,37.25
2023-08-21T15:11:20.968Z,37.24
2023-08-21T15:13:52.054Z,37.35
2023-08-21T15:16:24.330Z,37.50
2023-08-21T15:18:54.469Z,37.26
2023-08-21T15:21:25.666Z,37.12
2023-08-21T15:23:56.881Z,37.38
2023-08-21T15:26:27.119Z,37.39
2023-08-21T15:29:07.353Z,37.49
2023-08-21T15:31:54.122Z,37.46
2023-08-21T15:34:25.561Z,37.58
2023-08-21T15:37:00.728Z,37.67
2023-08-21T15:39:38.507Z,37.45
2023-08-21T15:42:10.612Z,37.66
2023-08-21T15:44:47.196Z,37.99
2023-08-21T15:50:04.720Z,38.66
2023-08-21T15:52:37.017Z,38.89
2023-08-21T15:55:06.423Z,39.07
2023-08-21T15:57:37.521Z,38.85
2023-08-21T16:00:09.565Z,39.36
2023-08-21T16:02:53.979Z,39.34
2023-08-21T16:05:24.625Z,39.47
2023-08-21T16:07:57.703Z,39.24
2023-08-21T16:10:30.372Z,39.57
2023-08-21T16:12:58.594Z,39.80
2023-08-21T16:15:34.608Z,39.92
2023-08-21T16:18:06.335Z,39.55
2023-08-21T16:20:35.271Z,39.64
2023-08-21T16:23:16.725Z,39.79
2023-08-21T16:25:45.021Z,39.62
2023-08-21T16:28:14.563Z,39.61
2023-08-21T16:30:43.320Z,39.54
2023-08-21T16:33:31.677Z,39.31
2023-08-21T16:36:01.135Z,39.34
2023-08-21T16:38:29.265Z,39.11
2023-08-21T16:40:58.211Z,38.97
2023-08-21T16:43:36.561Z,38.66
2023-08-21T16:46:09.337Z,38.64
2023-08-21T16:48:47.032Z,38.42
2023-08-21T16:51:16.154Z,37.63
2023-08-21T16:53:50.248Z,37.74
2023-08-21T16:56:23.930Z,37.37
2023-08-21T16:58:53.710Z,36.62
2023-08-21T17:01:23.928Z,36.56
2023-08-21T17:03:57.274Z,36.04
2023-08-21T17:06:40.242Z,35.73
2023-08-21T17:09:13.015Z,35.24
2023-08-21T17:11:43.172Z,34.94
2023-08-21T17:14:14.708Z,34.83
2023-08-21T17:16:45.034Z,34.48
2023-08-21T17:19:21.418Z,34.41
2023-08-21T17:21:52.571Z,34.26
2023-08-21T17:24:25.513Z,34.16
2023-08-21T17:27:00.579Z,34.08
2023-08-21T17:29:33.418Z,33.96
2023-08-21T17:32:25.294Z,33.80
2023-08-21T17:35:03.133Z,33.61
2023-08-21T17:37:39.591Z,33.54
2023-08-21T17:40:23.605Z,33.46
2023-08-21T17:42:57.491Z,33.36
2023-08-21T17:45:34.120Z,33.28
2023-08-21T17:48:10.121Z,33.16
2023-08-21T17:50:49.419Z,33.03
2023-08-21T17:53:23.318Z,32.95
2023-08-21T17:56:06.605Z,32.92
2023-08-21T17:58:45.108Z,32.83
2023-08-21T18:01:38.891Z,32.85
2023-08-21T18:04:16.143Z,32.83
2023-08-21T18:06:55.948Z,32.78
2023-08-21T18:09:31.517Z,32.64
2023-08-21T18:12:07.070Z,32.61
2023-08-21T18:14:40.629Z,32.63
2023-08-21T18:17:22.897Z,32.51
2023-08-21T18:19:59.484Z,32.45
2023-08-21T18:22:38.782Z,32.31
2023-08-21T18:25:18.790Z,32.46
2023-08-21T18:30:47.664Z,32.21
2023-08-21T18:33:30.471Z,32.16
2023-08-21T18:36:04.461Z,32.15
2023-08-21T18:38:58.860Z,32.08
2023-08-21T18:41:45.950Z,32.00
2023-08-21T18:44:19.530Z,31.94
2023-08-21T18:46:59.128Z,31.91
2023-08-21T18:49:34.680Z,31.91
2023-08-21T18:52:20.401Z,31.82
2023-08-21T18:55:20.223Z,31.77
2023-08-21T18:58:04.040Z,31.70
2023-08-21T19:00:51.664Z,31.58
2023-08-21T19:03:27.942Z,31.54
2023-08-21T19:06:03.739Z,31.46
2023-08-21T19:08:46.646Z,31.36
2023-08-21T19:11:38.262Z,31.39
2023-08-21T19:14:23.793Z,31.38
2023-08-21T19:17:00.758Z,31.40
2023-08-21T19:19:46.865Z,31.37
2023-08-21T19:22:32.200Z,31.31
2023-08-21T19:25:11.351Z,31.13
2023-08-21T19:27:56.528Z,31.10
2023-08-21T19:30:46.528Z,31.11
2023-08-21T19:33:30.430Z,31.12
2023-08-21T19:36:08.177Z,31.02
2023-08-21T19:38:53.890Z,31.11
2023-08-21T19:41:27.989Z,31.06
2023-08-21T19:44:12.615Z,31.04
2023-08-21T19:46:57.628Z,31.03
2023-08-21T19:49:29.612Z,30.92
2023-08-21T19:52:28.726Z,30.90
2023-08-21T19:55:16.525Z,30.81
2023-08-21T19:57:49.808Z,30.93
2023-08-21T20:00:38.603Z,30.94
2023-08-21T20:03:13.056Z,30.80
2023-08-21T20:05:52.078Z,30.72
2023-08-21T20:08:26.085Z,30.76
2023-08-21T20:11:07.105Z,30.68
2023-08-21T20:13:47.873Z,30.55
2023-08-21T20:16:47.721Z,30.63
2023-08-21T20:19:20.718Z,30.66
2023-08-21T20:21:57.279Z,30.59
2023-08-21T20:24:32.688Z,30.59
2023-08-21T20:27:12.331Z,30.46
2023-08-21T20:29:45.096Z,30.49
2023-08-21T20:32:19.233Z,30.36
2023-08-21T20:34:58.000Z,30.37
2023-08-21T20:37:41.235Z,30.34
2023-08-21T20:40:15.405Z,30.37
2023-08-21T20:42:54.614Z,30.30
2023-08-21T20:45:26.720Z,30.43
2023-08-21T20:48:07.446Z,30.28
2023-08-21T20:50:43.239Z,30.28
2023-08-21T20:53:17.850Z,30.18
2023-08-21T20:56:01.337Z,30.12
2023-08-21T20:58:42.737Z,30.09
2023-08-21T21:01:20.940Z,29.98
2023-08-21T21:04:03.592Z,30.05
2023-08-21T21:06:42.296Z,29.93
2023-08-21T21:09:10.529Z,30.05
2023-08-21T21:11:41.995Z,30.01
2023-08-21T21:14:19.192Z,29.95
2023-08-21T21:16:53.461Z,29.87
2023-08-21T21:19:30.784Z,29.88
2023-08-21T21:22:10.515Z,29.83
2023-08-21T21:24:45.868Z,29.75
2023-08-21T21:27:24.078Z,29.79
2023-08-21T21:29:53.955Z,29.80
2023-08-21T21:32:24.221Z,29.73
2023-08-21T21:34:56.675Z,29.70
2023-08-21T21:37:39.643Z,29.76
2023-08-21T21:40:18.710Z,29.69
2023-08-21T21:42:49.539Z,29.64
2023-08-21T21:45:31.396Z,29.60
2023-08-21T21:48:01.996Z,29.43
2023-08-21T21:50:33.954Z,29.40
2023-08-21T21:53:02.221Z,29.34
2023-08-21T21:55:31.867Z,29.25
2023-08-21T21:58:00.782Z,29.06
2023-08-21T22:00:32.635Z,29.10
2023-08-21T22:03:01.952Z,29.05
2023-08-21T22:05:43.075Z,28.67
2023-08-21T22:08:19.577Z,28.49
2023-08-21T22:10:58.046Z,28.51
2023-08-21T22:13:26.271Z,28.43
2023-08-21T22:16:01.296Z,28.54
2023-08-21T22:18:32.566Z,28.52
2023-08-21T22:21:09.718Z,28.56
2023-08-21T22:23:44.330Z,28.63
2023-08-21T22:26:13.915Z,28.54
2023-08-21T22:28:51.498Z,28.09
2023-08-21T22:31:36.134Z,28.40
2023-08-21T22:34:10.291Z,28.47
2023-08-21T22:36:43.386Z,28.45
2023-08-21T22:39:21.718Z,28.50
2023-08-21T22:41:53.381Z,28.44
2023-08-21T22:44:24.009Z,28.47
2023-08-21T22:46:53.608Z,28.52
2023-08-21T22:49:23.838Z,28.39
2023-08-21T22:52:02.994Z,28.37
2023-08-21T22:54:34.053Z,28.24
2023-08-21T22:57:04.906Z,28.15
2023-08-21T22:59:43.767Z,28.07
2023-08-21T23:02:20.499Z,28.22
2023-08-21T23:04:48.744Z,27.93
2023-08-21T23:07:24.383Z,28.03
2023-08-21T23:09:53.001Z,27.68
2023-08-21T23:12:25.762Z,27.73
2023-08-21T23:14:57.281Z,27.89
2023-08-21T23:17:27.080Z,27.69
2023-08-21T23:19:58.005Z,27.69
2023-08-21T23:22:28.958Z,27.69
2023-08-21T23:24:57.869Z,27.82
2023-08-21T23:27:28.175Z,27.92
2023-08-21T23:29:58.033Z,28.02
2023-08-21T23:32:28.439Z,27.90
2023-08-21T23:34:57.128Z,27.97
2023-08-21T23:37:40.514Z,27.88
2023-08-21T23:40:18.784Z,27.78
2023-08-21T23:42:49.773Z,27.83
2023-08-21T23:45:27.394Z,27.82
2023-08-21T23:48:05.381Z,27.74
2023-08-21T23:50:42.949Z,27.76
2023-08-21T23:53:25.195Z,27.64
2023-08-21T23:55:56.631Z,27.63
2023-08-21T23:58:28.245Z,27.79
